Skip Navigation Links
NOAA logo - Click to go to the NOAA homepage
NOAA's National Weather Service
Alaska Aviation Weather Unit
  NWS logo - Click to go to the NWS homepage
Left Navbar Graphic     03 AKDT = 11 GMT

   
NOAA is celebrating 200 years of science, service, and stewardship. Visit the NOAA 200th celebration Web site to learn more.
USA.gov is the U.S. Government's official Web portal to all Federal, state and local government Web resources and services.
Facebook
NWS on Facebook

AAWU Home :: Display TAF Add Bookmark
TAF CYQH 290538Z 2906/2918 VRB03KT P6SM SCT025 BKN050 OVC100 TEMPO
     2906/2918 BKN020
    RMK NXT FCST BY 291200Z=

METAR CYQH 290500Z 00000KT 20SM SCT023 OVC052 M03/M06 A2973 RMK SC3SC5 SLP108= METAR CYQH 290600Z VRB02KT 20SM BKN052 OVC073 M02/M05 A2974 RMK SC6AC2 CLIMAT -1.9/-3.2/0.0 SLP110= METAR CYQH 290700Z 09004KT 15SM OVC059 M03/M05 A2974 RMK SC8 SLP110= METAR CYQH 290800Z 10004KT 15SM OVC060 M04/M06 A2974 RMK SC8 SLP111= METAR CYQH 290900Z 00000KT 15SM FEW060 M06/M07 A2974 RMK SC2 SLP112= METAR CYQH 291000Z 00000KT 15SM OVC190 M08/M09 A2975 RMK AC8 SLP115=
 Alaska TAF Map

NOAA's National Weather Service
Alaska Aviation Weather Unit
6930 Sand Lake Road
Anchorage, AK 99502-1845
Disclaimer
Credits
Glossary
Privacy Policy
About Us
Career Opportunities
Contact AAWU Internet Services Site last modified: April, 17th 2012